createdAt,value
2022-10-21T00:00:54.620Z,0.00
2022-10-21T00:01:54.650Z,0.00
2022-10-21T00:02:54.685Z,0.00
2022-10-21T00:03:54.723Z,0.00
2022-10-21T00:04:54.745Z,0.00
2022-10-21T00:05:54.778Z,0.00
2022-10-21T00:06:54.810Z,0.00
2022-10-21T00:07:54.843Z,0.00
2022-10-21T00:08:54.921Z,0.00
2022-10-21T00:09:54.932Z,0.00
2022-10-21T00:10:54.940Z,0.00
2022-10-21T00:11:54.969Z,0.00
2022-10-21T00:12:55.003Z,0.00
2022-10-21T00:13:55.033Z,0.00
2022-10-21T00:14:57.199Z,0.00
2022-10-21T00:15:55.129Z,0.00
2022-10-21T00:16:55.135Z,0.00
2022-10-21T00:17:55.165Z,0.00
2022-10-21T00:18:55.194Z,0.00
2022-10-21T00:19:55.229Z,0.00
2022-10-21T00:20:55.258Z,0.00
2022-10-21T00:21:55.291Z,0.00
2022-10-21T00:22:55.323Z,0.00
2022-10-21T00:23:55.356Z,0.00
2022-10-21T00:24:55.387Z,0.00
2022-10-21T00:25:55.420Z,0.00
2022-10-21T00:26:55.453Z,0.00
2022-10-21T00:27:55.484Z,0.00
2022-10-21T00:28:55.528Z,0.00
2022-10-21T00:29:55.556Z,0.00
2022-10-21T00:30:57.973Z,0.00
2022-10-21T00:31:55.615Z,0.00
2022-10-21T00:32:59.328Z,0.00
2022-10-21T00:33:55.676Z,0.00
2022-10-21T00:34:55.712Z,0.00
2022-10-21T00:35:55.744Z,0.00
2022-10-21T00:36:55.783Z,0.00
2022-10-21T00:37:55.805Z,0.00
2022-10-21T00:38:55.840Z,0.00
2022-10-21T00:39:55.870Z,0.00
2022-10-21T00:40:55.899Z,0.00
2022-10-21T00:41:55.934Z,0.00
2022-10-21T00:42:55.965Z,0.00
2022-10-21T00:43:55.998Z,0.00
2022-10-21T00:44:56.032Z,0.00
2022-10-21T00:45:56.065Z,0.00
2022-10-21T00:46:56.094Z,0.00
2022-10-21T00:47:56.137Z,0.00
2022-10-21T00:48:56.156Z,0.00
2022-10-21T00:49:56.191Z,0.00
2022-10-21T00:50:56.220Z,0.00
2022-10-21T00:51:56.254Z,0.00
2022-10-21T00:52:56.285Z,0.00
2022-10-21T00:53:56.320Z,0.00
2022-10-21T00:54:56.348Z,0.00
2022-10-21T00:55:56.384Z,0.00
2022-10-21T00:56:56.415Z,0.00
2022-10-21T00:57:56.447Z,0.00
2022-10-21T00:58:56.481Z,0.00
2022-10-21T00:59:56.512Z,0.00
2022-10-21T01:00:56.630Z,0.00
2022-10-21T01:01:56.575Z,0.00
2022-10-21T01:02:56.610Z,0.00
2022-10-21T01:03:56.640Z,0.00
2022-10-21T01:04:56.672Z,0.00
2022-10-21T01:05:56.704Z,0.00
2022-10-21T01:06:56.733Z,0.00
2022-10-21T01:07:56.766Z,0.00
2022-10-21T01:08:56.823Z,0.00
2022-10-21T01:09:56.832Z,0.00
2022-10-21T01:10:56.862Z,0.00
2022-10-21T01:11:56.895Z,0.00
2022-10-21T01:12:56.927Z,0.00
2022-10-21T01:13:56.958Z,0.00
2022-10-21T01:14:57.070Z,0.00
2022-10-21T01:15:57.024Z,0.00
2022-10-21T01:16:57.054Z,0.00
2022-10-21T01:17:57.088Z,0.00
2022-10-21T01:18:57.116Z,0.00
2022-10-21T01:19:57.160Z,0.00
2022-10-21T01:20:57.196Z,0.00
2022-10-21T01:21:57.229Z,0.00
2022-10-21T01:22:57.256Z,0.00
2022-10-21T01:23:57.349Z,0.00
2022-10-21T01:24:57.324Z,0.00
2022-10-21T01:25:57.352Z,0.00
2022-10-21T01:26:57.386Z,0.00
2022-10-21T01:27:57.417Z,0.00
2022-10-21T01:28:57.451Z,0.00
2022-10-21T01:29:57.481Z,0.00
2022-10-21T01:30:57.514Z,0.00
2022-10-21T01:31:57.544Z,0.00
2022-10-21T01:32:57.632Z,0.00
2022-10-21T01:33:57.609Z,0.00
2022-10-21T01:34:57.651Z,0.00
2022-10-21T01:35:57.672Z,0.00
2022-10-21T01:36:57.707Z,0.00
2022-10-21T01:37:57.738Z,0.00
2022-10-21T01:38:57.770Z,0.00
2022-10-21T01:39:57.800Z,0.00
2022-10-21T01:40:57.833Z,0.00
2022-10-21T01:41:57.948Z,0.00
2022-10-21T01:42:57.897Z,0.00
2022-10-21T01:43:57.930Z,0.00
2022-10-21T01:44:57.964Z,0.00
2022-10-21T01:45:57.993Z,0.00
2022-10-21T01:46:58.027Z,0.00
2022-10-21T01:47:58.060Z,0.00
2022-10-21T01:48:58.093Z,0.00
2022-10-21T01:49:58.119Z,0.00
2022-10-21T01:50:58.154Z,0.00
2022-10-21T01:51:58.183Z,0.00
2022-10-21T01:52:58.220Z,0.00
2022-10-21T01:53:58.247Z,0.00
2022-10-21T01:54:58.281Z,0.00
2022-10-21T01:55:58.312Z,0.00
2022-10-21T01:56:58.346Z,0.00
2022-10-21T01:57:58.376Z,0.00
2022-10-21T01:58:58.409Z,0.00
2022-10-21T01:59:58.439Z,0.00
2022-10-21T02:00:58.585Z,0.00
2022-10-21T02:01:58.504Z,0.00
2022-10-21T02:02:58.539Z,0.00
2022-10-21T02:03:58.568Z,0.00
2022-10-21T02:04:58.603Z,0.00
2022-10-21T02:05:58.636Z,0.00
2022-10-21T02:06:58.665Z,0.00
2022-10-21T02:07:58.695Z,0.00
2022-10-21T02:08:58.810Z,0.00
2022-10-21T02:09:58.759Z,0.00
2022-10-21T02:10:58.794Z,0.00
2022-10-21T02:11:58.825Z,0.00
2022-10-21T02:12:58.857Z,0.00
2022-10-21T02:13:58.888Z,0.00
2022-10-21T02:14:58.921Z,0.00
2022-10-21T02:15:58.953Z,0.00
2022-10-21T02:16:58.985Z,0.00
2022-10-21T02:17:59.014Z,0.00
2022-10-21T02:18:59.079Z,0.00
2022-10-21T02:19:59.082Z,0.00
2022-10-21T02:20:59.114Z,0.00
2022-10-21T02:21:59.145Z,0.00
2022-10-21T02:22:59.177Z,0.00
2022-10-21T02:23:59.211Z,0.00
2022-10-21T02:24:59.242Z,0.00
2022-10-21T02:25:59.272Z,0.00
2022-10-21T02:26:59.307Z,0.00
2022-10-21T02:27:59.341Z,0.00
2022-10-21T02:28:59.373Z,0.00
2022-10-21T02:29:59.401Z,0.00
2022-10-21T02:30:59.433Z,0.00
2022-10-21T02:31:59.465Z,0.00
2022-10-21T02:32:59.498Z,0.00
2022-10-21T02:33:59.529Z,0.00
2022-10-21T02:34:59.563Z,0.00
2022-10-21T02:35:59.593Z,0.00
2022-10-21T02:36:59.628Z,0.00
2022-10-21T02:37:59.656Z,0.00
2022-10-21T02:38:59.690Z,0.00
2022-10-21T02:39:59.723Z,0.00
2022-10-21T02:40:59.757Z,0.00
2022-10-21T02:41:59.789Z,0.00
2022-10-21T02:42:59.819Z,0.00
2022-10-21T02:43:59.852Z,0.00
2022-10-21T02:44:59.888Z,0.00
2022-10-21T02:45:59.915Z,0.00
2022-10-21T02:47:00.025Z,0.00
2022-10-21T02:47:59.982Z,0.00
2022-10-21T02:49:00.013Z,0.00
2022-10-21T02:50:00.044Z,0.00
2022-10-21T02:51:00.080Z,0.00
2022-10-21T02:52:00.111Z,0.00
2022-10-21T02:53:00.144Z,0.00
2022-10-21T02:54:00.172Z,0.00
2022-10-21T02:55:00.204Z,0.00
2022-10-21T02:56:00.239Z,0.00
2022-10-21T02:57:00.269Z,0.00
2022-10-21T02:58:00.303Z,0.00
2022-10-21T02:59:00.336Z,0.00
2022-10-21T03:00:00.367Z,0.00
2022-10-21T03:01:00.439Z,0.00
2022-10-21T03:02:00.431Z,0.00
2022-10-21T03:03:00.470Z,0.00
2022-10-21T03:04:00.498Z,0.00
2022-10-21T03:05:00.529Z,0.00
2022-10-21T03:06:00.561Z,0.00
2022-10-21T03:07:00.597Z,0.00
2022-10-21T03:08:00.626Z,0.00
2022-10-21T03:09:00.712Z,0.00
2022-10-21T03:10:00.689Z,0.00
2022-10-21T03:11:00.725Z,0.00
2022-10-21T03:12:00.758Z,0.00
2022-10-21T03:13:00.785Z,0.00
2022-10-21T03:14:00.820Z,0.00
2022-10-21T03:15:00.852Z,0.00
2022-10-21T03:16:00.886Z,0.00
2022-10-21T03:17:00.921Z,0.00
2022-10-21T03:18:00.948Z,0.00
2022-10-21T03:19:00.980Z,0.00
2022-10-21T03:20:01.012Z,0.00
2022-10-21T03:21:01.045Z,0.00
2022-10-21T03:22:01.076Z,0.00
2022-10-21T03:23:01.109Z,0.00
2022-10-21T03:24:01.142Z,0.00
2022-10-21T03:25:01.177Z,0.00
2022-10-21T03:26:01.205Z,0.00
2022-10-21T03:27:01.240Z,0.00
2022-10-21T03:28:01.272Z,0.00
2022-10-21T03:29:01.302Z,0.00
2022-10-21T03:30:01.344Z,0.00
2022-10-21T03:31:01.374Z,0.00
2022-10-21T03:32:01.400Z,0.00
2022-10-21T03:33:01.431Z,0.00
2022-10-21T03:34:01.466Z,0.00
2022-10-21T03:35:01.495Z,0.00
2022-10-21T03:36:01.542Z,0.00
2022-10-21T03:37:01.564Z,0.00
2022-10-21T03:38:01.600Z,0.00
2022-10-21T03:39:01.625Z,0.00
2022-10-21T03:40:01.659Z,0.00
2022-10-21T03:41:01.707Z,0.00
2022-10-21T03:42:01.721Z,0.00
2022-10-21T03:43:01.755Z,0.00
2022-10-21T03:44:01.787Z,0.00
2022-10-21T03:45:01.820Z,0.00
2022-10-21T03:46:01.854Z,0.00
2022-10-21T03:47:01.891Z,0.00
2022-10-21T03:48:01.917Z,0.00
2022-10-21T03:49:04.178Z,0.00
2022-10-21T03:50:01.987Z,0.00
2022-10-21T03:51:02.013Z,0.00
2022-10-21T03:52:02.047Z,0.00
2022-10-21T03:53:09.920Z,0.00
2022-10-21T03:54:02.110Z,0.00
2022-10-21T03:55:02.162Z,0.00
2022-10-21T03:56:02.176Z,0.00
2022-10-21T03:57:02.209Z,0.00
2022-10-21T03:58:02.262Z,0.00
2022-10-21T03:59:02.274Z,0.00
2022-10-21T04:00:02.366Z,0.00
2022-10-21T04:01:02.337Z,0.00
2022-10-21T04:02:02.484Z,0.00
2022-10-21T04:03:02.404Z,0.00
2022-10-21T04:04:02.435Z,0.00
2022-10-21T04:05:02.470Z,0.00
2022-10-21T04:06:02.500Z,0.00
2022-10-21T04:07:02.529Z,0.00
2022-10-21T04:08:02.564Z,0.00
2022-10-21T04:09:02.691Z,0.00
2022-10-21T04:10:02.628Z,0.00
2022-10-21T04:11:02.663Z,0.00
2022-10-21T04:12:02.697Z,0.00
2022-10-21T04:13:02.727Z,0.00
2022-10-21T04:14:02.770Z,0.00
2022-10-21T04:15:02.796Z,0.00
2022-10-21T04:16:02.823Z,0.00
2022-10-21T04:17:07.723Z,0.00
2022-10-21T04:18:02.889Z,0.00
2022-10-21T04:19:02.918Z,0.00
2022-10-21T04:20:02.953Z,0.00
2022-10-21T04:21:02.999Z,0.00
2022-10-21T04:22:03.018Z,0.00
2022-10-21T04:23:03.052Z,0.00
2022-10-21T04:24:03.081Z,0.00
2022-10-21T04:25:04.770Z,0.00
2022-10-21T04:26:03.145Z,0.00
2022-10-21T04:27:03.182Z,0.00
2022-10-21T04:28:03.212Z,0.00
2022-10-21T04:29:03.253Z,0.00
2022-10-21T04:30:03.274Z,0.00
2022-10-21T04:31:03.310Z,0.00
2022-10-21T04:32:03.344Z,0.00
2022-10-21T04:33:03.377Z,0.00
2022-10-21T04:34:03.404Z,0.00
2022-10-21T04:35:03.435Z,0.00
2022-10-21T04:36:03.469Z,0.00
2022-10-21T04:37:05.188Z,0.00
2022-10-21T04:38:03.532Z,0.00
2022-10-21T04:39:03.569Z,0.00
2022-10-21T04:40:03.602Z,0.00
2022-10-21T04:41:03.645Z,0.00
2022-10-21T04:42:03.662Z,0.00
2022-10-21T04:43:03.699Z,0.00
2022-10-21T04:44:03.726Z,0.00
2022-10-21T04:45:03.759Z,0.00
2022-10-21T04:46:06.478Z,0.00
2022-10-21T04:47:03.825Z,0.00
2022-10-21T04:48:03.856Z,0.00
2022-10-21T04:49:03.888Z,0.00
2022-10-21T04:50:03.919Z,0.00
2022-10-21T04:51:03.952Z,0.00
2022-10-21T04:52:03.984Z,0.00
2022-10-21T04:53:04.018Z,0.00
2022-10-21T04:54:04.052Z,0.00
2022-10-21T04:55:04.081Z,0.00
2022-10-21T04:56:04.115Z,0.00
2022-10-21T04:57:04.144Z,0.00
2022-10-21T04:58:04.178Z,0.00
2022-10-21T04:59:04.211Z,0.00
2022-10-21T05:00:04.245Z,0.00
2022-10-21T05:01:04.317Z,0.00
2022-10-21T05:02:04.315Z,0.00
2022-10-21T05:03:04.351Z,0.00
2022-10-21T05:04:04.375Z,0.00
2022-10-21T05:05:04.412Z,0.00
2022-10-21T05:06:04.436Z,0.00
2022-10-21T05:07:04.469Z,0.00
2022-10-21T05:08:07.000Z,0.00
2022-10-21T05:09:04.637Z,0.00
2022-10-21T05:10:04.570Z,0.00
2022-10-21T05:11:04.598Z,0.00
2022-10-21T05:12:04.630Z,0.00
2022-10-21T05:13:04.665Z,0.00
2022-10-21T05:14:04.695Z,0.00
2022-10-21T05:15:04.728Z,0.00
2022-10-21T05:16:04.761Z,0.00
2022-10-21T05:17:04.806Z,0.00
2022-10-21T05:18:04.825Z,0.00
2022-10-21T05:19:04.863Z,0.00
2022-10-21T05:20:04.893Z,0.00
2022-10-21T05:21:04.940Z,0.00
2022-10-21T05:22:04.956Z,0.00
2022-10-21T05:23:04.984Z,0.00
2022-10-21T05:24:05.019Z,0.00
2022-10-21T05:25:05.055Z,0.00
2022-10-21T05:26:05.083Z,0.00
2022-10-21T05:27:05.120Z,0.00
2022-10-21T05:28:05.147Z,0.00
2022-10-21T05:29:05.180Z,0.00
2022-10-21T05:30:05.213Z,0.00
2022-10-21T05:31:05.250Z,0.00
2022-10-21T05:32:05.277Z,0.00
2022-10-21T05:33:05.310Z,0.00
2022-10-21T05:34:05.341Z,0.00
2022-10-21T05:35:05.380Z,0.00
2022-10-21T05:36:05.405Z,0.00
2022-10-21T05:37:05.442Z,0.00
2022-10-21T05:38:05.469Z,0.00
2022-10-21T05:39:05.506Z,0.00
2022-10-21T05:40:05.578Z,0.00
2022-10-21T05:41:05.571Z,0.00
2022-10-21T05:42:05.602Z,0.00
2022-10-21T05:43:05.632Z,0.00
2022-10-21T05:44:05.672Z,0.00
2022-10-21T05:45:05.702Z,0.00
2022-10-21T05:46:05.731Z,0.00
2022-10-21T05:47:05.762Z,0.00
2022-10-21T05:48:05.797Z,0.00
2022-10-21T05:49:05.831Z,0.00
2022-10-21T05:50:05.861Z,0.00
2022-10-21T05:51:05.892Z,0.00
2022-10-21T05:52:05.925Z,0.00
2022-10-21T05:53:05.957Z,0.00
2022-10-21T05:54:05.991Z,0.00
2022-10-21T05:55:06.022Z,0.00
2022-10-21T05:56:06.056Z,0.00
2022-10-21T05:57:06.086Z,0.00
2022-10-21T05:58:06.120Z,0.00
2022-10-21T05:59:09.309Z,0.00
2022-10-21T06:00:06.183Z,0.00
2022-10-21T06:01:06.260Z,0.00
2022-10-21T06:02:06.249Z,0.00
2022-10-21T06:03:06.285Z,0.00
2022-10-21T06:04:06.313Z,0.00
2022-10-21T06:05:06.367Z,0.00
2022-10-21T06:06:06.376Z,0.00
2022-10-21T06:07:06.412Z,0.00
2022-10-21T06:08:06.444Z,0.00
2022-10-21T06:09:06.559Z,0.00
2022-10-21T06:10:06.509Z,0.00
2022-10-21T06:11:06.539Z,0.00
2022-10-21T06:12:06.572Z,0.00
2022-10-21T06:13:06.606Z,0.00
2022-10-21T06:14:06.635Z,0.00
2022-10-21T06:15:06.673Z,0.00
2022-10-21T06:17:06.735Z,0.00
2022-10-21T06:18:06.766Z,0.00
2022-10-21T06:19:06.798Z,0.00
2022-10-21T06:20:06.830Z,0.00
2022-10-21T06:21:06.865Z,0.00
2022-10-21T06:22:06.896Z,0.00
2022-10-21T06:23:06.927Z,0.00
2022-10-21T06:24:06.970Z,0.00
2022-10-21T06:25:07.074Z,0.00
2022-10-21T06:26:07.027Z,0.00
2022-10-21T06:27:07.057Z,0.00
2022-10-21T06:28:07.090Z,0.00
2022-10-21T06:29:07.124Z,0.00
2022-10-21T06:30:07.156Z,0.00
2022-10-21T06:31:07.186Z,0.00
2022-10-21T06:32:07.219Z,0.00
2022-10-21T06:33:07.252Z,0.00
2022-10-21T06:34:07.339Z,0.00
2022-10-21T06:35:07.341Z,0.00
2022-10-21T06:36:07.362Z,0.00
2022-10-21T06:37:07.384Z,0.00
2022-10-21T06:38:07.416Z,0.00
2022-10-21T06:39:07.448Z,0.00
2022-10-21T06:40:07.479Z,0.00
2022-10-21T06:41:10.546Z,0.00
2022-10-21T06:42:07.554Z,0.00
2022-10-21T06:43:07.573Z,0.00
2022-10-21T06:44:07.612Z,0.00
2022-10-21T06:45:07.655Z,0.00
2022-10-21T06:46:07.671Z,0.00
2022-10-21T06:47:07.701Z,0.00
2022-10-21T06:48:07.738Z,0.00
2022-10-21T06:49:07.769Z,0.00
2022-10-21T06:50:07.801Z,0.00
2022-10-21T06:51:07.833Z,0.00
2022-10-21T06:52:07.865Z,0.00
2022-10-21T06:53:07.902Z,0.00
2022-10-21T06:54:07.929Z,0.00
2022-10-21T06:55:07.960Z,5.63
2022-10-21T06:56:07.994Z,5.63
2022-10-21T06:57:08.024Z,5.63
2022-10-21T06:58:08.059Z,5.63
2022-10-21T06:59:08.092Z,5.63
2022-10-21T07:00:08.124Z,11.25
2022-10-21T07:01:16.507Z,11.25
2022-10-21T07:02:08.186Z,11.25
2022-10-21T07:03:08.219Z,11.25
2022-10-21T07:04:08.251Z,11.25
2022-10-21T07:05:08.294Z,11.25
2022-10-21T07:06:08.315Z,11.25
2022-10-21T07:07:08.353Z,11.25
2022-10-21T07:08:10.629Z,11.25
2022-10-21T07:09:08.526Z,11.25
2022-10-21T07:10:08.444Z,11.25
2022-10-21T07:11:08.480Z,11.25
2022-10-21T07:12:08.513Z,11.25
2022-10-21T07:13:08.553Z,11.25
2022-10-21T07:14:08.576Z,11.25
2022-10-21T07:15:08.606Z,11.25
2022-10-21T07:16:08.639Z,11.25
2022-10-21T07:17:08.672Z,11.25
2022-10-21T07:18:08.711Z,11.25
2022-10-21T07:19:08.736Z,11.25
2022-10-21T07:20:08.767Z,11.25
2022-10-21T07:21:08.801Z,11.25
2022-10-21T07:22:08.834Z,11.25
2022-10-21T07:23:08.866Z,11.25
2022-10-21T07:24:08.897Z,11.25
2022-10-21T07:25:08.932Z,5.63
2022-10-21T07:26:08.961Z,5.63
2022-10-21T07:27:08.994Z,11.25
2022-10-21T07:28:09.026Z,11.25
2022-10-21T07:29:09.060Z,11.25
2022-10-21T07:30:09.095Z,11.25
2022-10-21T07:31:09.124Z,11.25
2022-10-21T07:32:09.156Z,5.63
2022-10-21T07:33:09.189Z,5.63
2022-10-21T07:34:09.224Z,5.63
2022-10-21T07:35:09.252Z,5.63
2022-10-21T07:36:09.286Z,5.63
2022-10-21T07:37:09.321Z,5.63
2022-10-21T07:38:09.361Z,5.63
2022-10-21T07:39:09.383Z,5.63
2022-10-21T07:40:09.418Z,5.63
2022-10-21T07:41:09.451Z,11.25
2022-10-21T07:42:09.479Z,11.25
2022-10-21T07:43:09.540Z,11.25
2022-10-21T07:44:09.546Z,11.25
2022-10-21T07:45:09.578Z,16.88
2022-10-21T07:46:09.608Z,16.88
2022-10-21T07:47:09.645Z,16.88
2022-10-21T07:48:09.673Z,16.88
2022-10-21T07:49:09.706Z,22.50
2022-10-21T07:50:09.739Z,22.50
2022-10-21T07:51:09.774Z,22.50
2022-10-21T07:52:09.846Z,22.50
2022-10-21T07:53:12.748Z,22.50
2022-10-21T07:54:09.870Z,22.50
2022-10-21T07:55:09.903Z,16.88
2022-10-21T07:56:09.933Z,16.88
2022-10-21T07:57:09.969Z,16.88
2022-10-21T07:58:09.998Z,16.88
2022-10-21T07:59:12.864Z,16.88
2022-10-21T08:00:10.062Z,22.50
2022-10-21T08:01:10.285Z,22.50
2022-10-21T08:02:10.133Z,28.13
2022-10-21T08:03:10.161Z,28.13
2022-10-21T08:04:10.194Z,33.75
2022-10-21T08:05:10.226Z,33.75
2022-10-21T08:06:10.268Z,28.13
2022-10-21T08:07:13.101Z,28.13
2022-10-21T08:08:10.322Z,22.50
2022-10-21T08:09:10.433Z,22.50
2022-10-21T08:10:10.388Z,22.50
2022-10-21T08:11:10.421Z,22.50
2022-10-21T08:12:13.009Z,22.50
2022-10-21T08:13:10.486Z,16.88
2022-10-21T08:14:10.520Z,16.88
2022-10-21T08:15:10.551Z,16.88
2022-10-21T08:16:10.582Z,16.88
2022-10-21T08:17:10.617Z,16.88
2022-10-21T08:18:10.645Z,16.88
2022-10-21T08:19:10.681Z,16.88
2022-10-21T08:20:10.713Z,16.88
2022-10-21T08:21:10.746Z,16.88
2022-10-21T08:22:10.776Z,16.88
2022-10-21T08:23:10.812Z,16.88
2022-10-21T08:24:10.844Z,22.50
2022-10-21T08:25:10.878Z,22.50
2022-10-21T08:26:10.908Z,22.50
2022-10-21T08:27:10.942Z,22.50
2022-10-21T08:28:10.973Z,22.50
2022-10-21T08:29:11.012Z,22.50
2022-10-21T08:30:11.047Z,28.13
2022-10-21T08:31:11.073Z,28.13
2022-10-21T08:32:11.108Z,28.13
2022-10-21T08:33:11.139Z,28.13
2022-10-21T08:34:11.168Z,33.75
2022-10-21T08:35:11.203Z,33.75
2022-10-21T08:36:11.237Z,33.75
2022-10-21T08:37:11.268Z,39.38
2022-10-21T08:38:11.301Z,39.38
2022-10-21T08:39:11.334Z,39.38
2022-10-21T08:40:11.365Z,39.38
2022-10-21T08:41:11.400Z,45.00
2022-10-21T08:42:11.430Z,45.00
2022-10-21T08:43:11.466Z,50.63
2022-10-21T08:44:11.496Z,50.63
2022-10-21T08:45:11.533Z,56.25
2022-10-21T08:46:11.562Z,61.88
2022-10-21T08:47:11.633Z,61.88
2022-10-21T08:48:11.628Z,61.88
2022-10-21T08:49:11.665Z,67.50
2022-10-21T08:50:11.697Z,73.13
2022-10-21T08:51:11.728Z,73.13
2022-10-21T08:52:11.761Z,78.75
2022-10-21T08:53:11.795Z,78.75
2022-10-21T08:54:11.827Z,90.00
2022-10-21T08:55:11.861Z,106.88
2022-10-21T08:56:14.599Z,275.63
2022-10-21T08:57:11.927Z,275.63
2022-10-21T08:58:15.283Z,787.50
2022-10-21T08:59:12.004Z,703.13
2022-10-21T09:00:12.026Z,568.13
2022-10-21T09:01:12.059Z,691.88
2022-10-21T09:02:12.099Z,225.00
2022-10-21T09:03:12.188Z,174.38
2022-10-21T09:04:12.157Z,135.00
2022-10-21T09:05:12.278Z,90.00
2022-10-21T09:06:12.223Z,84.38
2022-10-21T09:07:12.260Z,78.75
2022-10-21T09:08:12.302Z,78.75
2022-10-21T09:09:12.374Z,78.75
2022-10-21T09:10:12.359Z,84.38
2022-10-21T09:11:12.391Z,78.75
2022-10-21T09:12:12.424Z,78.75
2022-10-21T09:13:12.470Z,78.75
2022-10-21T09:14:12.492Z,78.75
2022-10-21T09:15:12.527Z,84.38
2022-10-21T09:16:12.558Z,78.75
2022-10-21T09:17:12.593Z,78.75
2022-10-21T09:18:12.632Z,67.50
2022-10-21T09:19:12.662Z,61.88
2022-10-21T09:20:12.699Z,56.25
2022-10-21T09:21:12.733Z,56.25
2022-10-21T09:22:33.873Z,56.25
2022-10-21T09:23:12.798Z,61.88
2022-10-21T09:24:12.828Z,73.13
2022-10-21T09:25:12.863Z,78.75
2022-10-21T09:26:12.899Z,84.38
2022-10-21T09:27:12.932Z,90.00
2022-10-21T09:28:12.965Z,95.63
2022-10-21T09:29:13.000Z,112.50
2022-10-21T09:30:13.032Z,140.63
2022-10-21T09:31:13.065Z,157.50
2022-10-21T09:32:13.098Z,168.75
2022-10-21T09:33:13.137Z,163.13
2022-10-21T09:34:13.172Z,168.75
2022-10-21T09:35:13.201Z,146.25
2022-10-21T09:36:13.233Z,146.25
2022-10-21T09:37:13.271Z,140.63
2022-10-21T09:38:13.301Z,129.38
2022-10-21T09:39:13.338Z,123.75
2022-10-21T09:40:13.370Z,129.38
2022-10-21T09:41:13.425Z,129.38
2022-10-21T09:42:35.292Z,129.38
2022-10-21T09:43:13.475Z,129.38
2022-10-21T09:44:13.505Z,123.75
2022-10-21T09:45:13.540Z,123.75
2022-10-21T09:46:13.575Z,118.13
2022-10-21T09:47:13.609Z,112.50
2022-10-21T09:48:13.643Z,106.88
2022-10-21T09:49:41.940Z,95.63
2022-10-21T09:50:13.712Z,90.00
2022-10-21T09:51:13.745Z,90.00
2022-10-21T09:52:13.779Z,90.00
2022-10-21T09:53:13.815Z,95.63
2022-10-21T09:54:13.851Z,106.88
2022-10-21T09:55:13.885Z,123.75
2022-10-21T09:56:13.916Z,140.63
2022-10-21T09:57:13.957Z,146.25
2022-10-21T09:58:13.984Z,135.00
2022-10-21T09:59:14.022Z,135.00
2022-10-21T10:00:14.355Z,146.25
2022-10-21T10:01:14.089Z,163.13
2022-10-21T10:02:14.178Z,191.25
2022-10-21T10:03:14.195Z,191.25
2022-10-21T10:04:14.191Z,196.88
2022-10-21T10:05:14.265Z,174.38
2022-10-21T10:06:14.259Z,157.50
2022-10-21T10:07:14.296Z,140.63
2022-10-21T10:08:14.329Z,129.38
2022-10-21T10:09:14.369Z,135.00
2022-10-21T10:10:14.467Z,151.88
2022-10-21T10:11:14.433Z,258.75
2022-10-21T10:12:14.482Z,444.38
2022-10-21T10:13:14.505Z,427.50
2022-10-21T10:14:14.534Z,309.38
2022-10-21T10:15:14.572Z,219.38
2022-10-21T10:16:14.603Z,168.75
2022-10-21T10:17:14.640Z,129.38
2022-10-21T10:18:14.674Z,95.63
2022-10-21T10:19:14.708Z,106.88
2022-10-21T10:20:14.745Z,123.75
2022-10-21T10:21:14.790Z,180.00
2022-10-21T10:22:14.815Z,185.63
2022-10-21T10:23:14.850Z,388.13
2022-10-21T10:24:14.885Z,601.88
2022-10-21T10:25:14.918Z,1569.38
2022-10-21T10:26:14.952Z,506.25
2022-10-21T10:27:14.989Z,1113.75
2022-10-21T10:28:15.023Z,720.00
2022-10-21T10:29:15.061Z,382.50
2022-10-21T10:30:15.102Z,365.63
2022-10-21T10:31:15.129Z,343.13
2022-10-21T10:32:15.195Z,326.25
2022-10-21T10:33:15.199Z,298.13
2022-10-21T10:34:15.233Z,270.00
2022-10-21T10:35:15.270Z,399.38
2022-10-21T10:36:15.310Z,405.00
2022-10-21T10:37:15.440Z,421.88
2022-10-21T10:38:15.376Z,320.63
2022-10-21T10:39:15.423Z,1839.38
2022-10-21T10:40:15.451Z,1248.75
2022-10-21T10:41:15.486Z,241.88
2022-10-21T10:42:15.521Z,309.38
2022-10-21T10:43:15.559Z,382.50
2022-10-21T10:44:15.596Z,286.88
2022-10-21T10:45:15.638Z,303.75
2022-10-21T10:46:15.669Z,303.75
2022-10-21T10:47:15.704Z,360.00
2022-10-21T10:48:15.741Z,433.13
2022-10-21T10:49:15.782Z,393.75
2022-10-21T10:50:15.814Z,365.63
2022-10-21T10:51:15.851Z,320.63
2022-10-21T10:52:15.886Z,590.63
2022-10-21T10:53:16.019Z,421.88
2022-10-21T10:54:15.964Z,433.13
2022-10-21T10:55:15.997Z,703.13
2022-10-21T10:56:16.033Z,1068.75
2022-10-21T10:57:16.083Z,1046.25
2022-10-21T10:58:18.271Z,1158.75
2022-10-21T10:59:16.147Z,871.88
2022-10-21T11:00:16.180Z,523.13
2022-10-21T11:01:16.262Z,703.13
2022-10-21T11:02:16.256Z,466.88
2022-10-21T11:03:16.292Z,416.25
2022-10-21T11:04:16.334Z,433.13
2022-10-21T11:05:16.367Z,511.88
2022-10-21T11:06:16.406Z,489.38
2022-10-21T11:07:16.446Z,489.38
2022-10-21T11:08:16.481Z,540.00
2022-10-21T11:09:16.807Z,669.38
2022-10-21T11:10:16.554Z,1063.13
2022-10-21T11:11:16.592Z,1473.75
2022-10-21T11:12:16.629Z,1350.00
2022-10-21T11:13:16.680Z,1293.75
2022-10-21T11:14:20.306Z,1023.75
2022-10-21T11:15:16.743Z,528.75
2022-10-21T11:16:16.784Z,472.50
2022-10-21T11:17:16.821Z,630.00
2022-10-21T11:18:24.970Z,545.63
2022-10-21T11:19:16.896Z,376.88
2022-10-21T11:20:16.937Z,376.88
2022-10-21T11:21:16.994Z,388.13
2022-10-21T11:22:17.013Z,241.88
2022-10-21T11:23:17.050Z,129.38
2022-10-21T11:24:17.090Z,123.75
2022-10-21T11:25:17.224Z,112.50
2022-10-21T11:26:17.166Z,118.13
2022-10-21T11:27:19.115Z,135.00
2022-10-21T11:28:17.243Z,135.00
2022-10-21T11:29:17.283Z,112.50
2022-10-21T11:30:17.319Z,123.75
2022-10-21T11:31:17.357Z,135.00
2022-10-21T11:32:17.396Z,230.63
2022-10-21T11:33:17.435Z,365.63
2022-10-21T11:34:17.474Z,241.88
2022-10-21T11:35:17.508Z,511.88
2022-10-21T11:36:17.551Z,163.13
2022-10-21T11:37:17.586Z,208.13
2022-10-21T11:38:17.624Z,146.25
2022-10-21T11:39:21.370Z,202.50
2022-10-21T11:40:17.701Z,540.00
2022-10-21T11:41:19.029Z,433.13
2022-10-21T11:42:17.776Z,697.50
2022-10-21T11:43:17.812Z,236.25
2022-10-21T11:44:17.851Z,106.88
2022-10-21T11:45:17.887Z,73.13
2022-10-21T11:46:17.927Z,56.25
2022-10-21T11:47:17.962Z,61.88
2022-10-21T11:48:18.004Z,61.88
2022-10-21T11:49:18.039Z,73.13
2022-10-21T11:50:18.077Z,95.63
2022-10-21T11:51:18.112Z,123.75
2022-10-21T11:52:18.152Z,84.38
2022-10-21T11:53:18.189Z,78.75
2022-10-21T11:54:18.229Z,90.00
2022-10-21T11:55:18.262Z,101.25
2022-10-21T11:56:18.302Z,129.38
2022-10-21T11:57:18.434Z,230.63
2022-10-21T11:58:18.376Z,196.88
2022-10-21T11:59:18.436Z,151.88
2022-10-21T12:00:18.452Z,157.50
2022-10-21T12:01:18.485Z,180.00
2022-10-21T12:02:18.683Z,270.00
2022-10-21T12:03:18.560Z,247.50
2022-10-21T12:04:18.601Z,326.25
2022-10-21T12:05:18.635Z,416.25
2022-10-21T12:06:18.674Z,371.25
2022-10-21T12:07:18.712Z,500.63
2022-10-21T12:08:18.774Z,995.63
2022-10-21T12:09:18.783Z,202.50
2022-10-21T12:10:18.820Z,202.50
2022-10-21T12:11:18.855Z,697.50
2022-10-21T12:12:18.894Z,1147.50
2022-10-21T12:13:19.024Z,399.38
2022-10-21T12:14:18.967Z,298.13
2022-10-21T12:15:19.009Z,365.63
2022-10-21T12:16:19.044Z,382.50
2022-10-21T12:17:19.078Z,281.25
2022-10-21T12:18:19.117Z,309.38
2022-10-21T12:19:19.151Z,292.50
2022-10-21T12:20:22.875Z,320.63
2022-10-21T12:21:19.224Z,399.38
2022-10-21T12:22:19.263Z,286.88
2022-10-21T12:23:19.299Z,489.38
2022-10-21T12:24:19.337Z,511.88
2022-10-21T12:25:19.373Z,534.38
2022-10-21T12:26:19.411Z,472.50
2022-10-21T12:27:19.446Z,410.63
2022-10-21T12:28:19.485Z,540.00
2022-10-21T12:29:19.619Z,528.75
2022-10-21T12:30:23.367Z,466.88
2022-10-21T12:31:19.596Z,427.50
2022-10-21T12:32:19.635Z,360.00
2022-10-21T12:33:19.673Z,264.38
2022-10-21T12:34:19.708Z,253.13
2022-10-21T12:35:19.745Z,270.00
2022-10-21T12:36:19.784Z,202.50
2022-10-21T12:37:19.819Z,174.38
2022-10-21T12:38:19.857Z,151.88
2022-10-21T12:39:19.897Z,118.13
2022-10-21T12:40:19.932Z,78.75
2022-10-21T12:41:19.972Z,112.50
2022-10-21T12:42:20.010Z,123.75
2022-10-21T12:43:20.048Z,106.88
2022-10-21T12:44:20.087Z,73.13
2022-10-21T12:45:20.200Z,67.50
2022-10-21T12:46:20.159Z,50.63
2022-10-21T12:47:20.193Z,45.00
2022-10-21T12:48:20.230Z,45.00
2022-10-21T12:49:20.268Z,45.00
2022-10-21T12:50:20.307Z,39.38
2022-10-21T12:51:20.341Z,39.38
2022-10-21T12:52:20.379Z,33.75
2022-10-21T12:53:20.416Z,33.75
2022-10-21T12:54:20.453Z,28.13
2022-10-21T12:55:20.488Z,28.13
2022-10-21T12:56:20.529Z,28.13
2022-10-21T12:57:20.564Z,28.13
2022-10-21T12:58:20.601Z,28.13
2022-10-21T12:59:20.637Z,28.13
2022-10-21T13:00:20.689Z,22.50
2022-10-21T13:01:20.829Z,22.50
2022-10-21T13:02:20.748Z,22.50